Terminal Aerodrome Forecast
Issued by NWS

Home | Current Version | Previous Version | Text Only | Print | Product List | Glossary On
Versions: 1 2 3 4 5 6 7 8 9 10 11 12 13 14 15 16 17 18 19 20
000
FTUS45 KABQ 301142 CCA
TAFTCC
TAF COR
KTCC 301142Z 3012/0112 31015G24KT P6SM VCSH SCT025 OVC050
      TEMPO 3012/3013 5SM -SN OVC025
     FM301500 28015G25KT P6SM BKN080
     FM301800 25012G22KT P6SM FEW080
     FM302200 29008KT P6SM FEW250=

USA.gov is the U.S. government's official web portal to all federal, state and local government web resources and services.